Time;durP1;ratioP1;P1;durP2;ratioP2;P2;SDS_P1;SDS_P2;PMS_P1;PMS_P2;Temp;Humidity;BMP_temperature;BMP_pressure;BME280_temperature;BME280_humidity;BME280_pressure;Samples;Min_cycle;Max_cycle;Signal;HPM_P1;HPM_P2
2022/09/30 00:01:55;;;;;;;5.60;3.50;;;;;;;11.96;100.00;100365.20;107266;1250;60901;-76
2022/09/30 00:04:24;;;;;;;6.80;3.70;;;;;;;11.91;100.00;100367.04;107363;1250;74868;-75
2022/09/30 00:06:53;;;;;;;5.90;3.30;;;;;;;11.93;100.00;100369.64;107418;1250;70117;-76
2022/09/30 00:09:22;;;;;;;8.60;3.70;;;;;;;11.89;100.00;100371.38;107285;1250;68238;-75
2022/09/30 00:11:51;;;;;;;4.80;3.10;;;;;;;11.86;100.00;100378.77;107236;1250;72412;-75
2022/09/30 00:14:22;;;;;;;4.70;3.20;;;;;;;11.83;100.00;100379.40;107394;1250;60556;-77
2022/09/30 00:16:51;;;;;;;8.20;3.20;;;;;;;11.91;100.00;100375.89;107469;1250;59630;-78
2022/09/30 00:19:20;;;;;;;4.40;2.90;;;;;;;11.92;100.00;100379.51;107342;1250;71492;-73
2022/09/30 00:21:50;;;;;;;5.90;3.40;;;;;;;11.90;100.00;100379.34;107260;1250;70442;-78
2022/09/30 00:24:18;;;;;;;4.20;3.10;;;;;;;11.91;100.00;100378.55;107465;1250;69703;-76
2022/09/30 00:26:47;;;;;;;4.20;3.00;;;;;;;11.87;100.00;100376.96;107423;1250;72901;-79
2022/09/30 00:29:16;;;;;;;5.20;2.70;;;;;;;11.81;100.00;100378.30;107290;1250;61340;-77
2022/09/30 00:31:45;;;;;;;5.50;3.30;;;;;;;11.75;100.00;100380.38;107433;1249;58897;-74
2022/09/30 00:34:14;;;;;;;5.20;3.10;;;;;;;11.70;100.00;100380.83;107469;1248;73054;-72
2022/09/30 00:36:48;;;;;;;4.70;3.00;;;;;;;11.65;100.00;100384.31;107546;1250;72152;-73
2022/09/30 00:39:28;;;;;;;6.50;2.80;;;;;;;11.65;100.00;100385.14;107334;1250;70453;-73
2022/09/30 00:42:06;;;;;;;5.00;3.00;;;;;;;11.65;100.00;100387.45;107276;1250;72405;-73
2022/09/30 00:45:02;;;;;;;11.60;3.60;;;;;;;11.63;100.00;100386.39;107529;1249;61310;-73
2022/09/30 00:47:44;;;;;;;4.60;2.90;;;;;;;11.63;100.00;100390.10;107391;1250;60641;-73
2022/09/30 00:50:26;;;;;;;6.40;2.60;;;;;;;11.77;100.00;100393.48;107308;1250;71644;-70
2022/09/30 00:53:29;;;;;;;5.00;3.00;;;;;;;11.82;100.00;100396.59;107275;1250;69558;-72
2022/09/30 00:56:18;;;;;;;5.50;2.90;;;;;;;11.83;100.00;100396.63;107454;1249;69620;-71
2022/09/30 00:59:01;;;;;;;5.20;3.20;;;;;;;11.87;100.00;100401.89;107419;1249;74232;-77
2022/09/30 01:01:30;;;;;;;4.60;3.20;;;;;;;11.86;100.00;100400.41;107555;1250;62993;-76
2022/09/30 01:04:05;;;;;;;6.00;3.30;;;;;;;11.87;100.00;100396.52;107555;1250;60977;-74
2022/09/30 01:06:34;;;;;;;6.40;3.40;;;;;;;11.82;100.00;100397.91;107242;1250;75144;-77
2022/09/30 01:09:04;;;;;;;5.50;3.20;;;;;;;11.79;100.00;100400.80;107405;1250;73478;-70
2022/09/30 01:11:33;;;;;;;4.20;3.10;;;;;;;11.85;100.00;100400.11;107219;1250;69476;-73
2022/09/30 01:14:16;;;;;;;7.00;3.50;;;;;;;11.85;100.00;100400.16;107318;1250;71742;-73
2022/09/30 01:17:00;;;;;;;;;;;;;;;11.76;100.00;100397.40;107254;1250;61299;-74
2022/09/30 01:19:40;;;;;;;5.80;3.10;;;;;;;11.76;100.00;100401.20;107414;1250;61208;-70
2022/09/30 01:22:36;;;;;;;7.30;3.30;;;;;;;11.83;100.00;100395.77;107456;1250;72152;-74
2022/09/30 01:25:49;;;;;;;4.50;3.20;;;;;;;11.79;100.00;100397.98;107528;1249;72409;-77
2022/09/30 01:28:43;;;;;;;4.50;3.10;;;;;;;11.78;100.00;100401.04;107498;1250;69079;-81
2022/09/30 01:31:23;;;;;;;8.80;3.60;;;;;;;11.77;100.00;100407.94;107410;1250;73858;-78
2022/09/30 01:34:04;;;;;;;6.10;3.30;;;;;;;11.66;100.00;100414.79;107513;1250;61058;-72
2022/09/30 01:37:06;;;;;;;7.00;3.50;;;;;;;11.59;100.00;100426.34;107506;1250;58893;-76
2022/09/30 01:39:56;;;;;;;5.80;3.40;;;;;;;11.53;100.00;100428.90;107482;1250;72754;-75
2022/09/30 01:42:52;;;;;;;5.30;3.60;;;;;;;11.49;100.00;100428.41;107561;1250;70963;-78
2022/09/30 01:45:34;;;;;;;6.10;3.10;;;;;;;11.39;100.00;100434.52;107576;1249;68471;-77
2022/09/30 01:48:42;;;;;;;6.50;3.40;;;;;;;11.33;100.00;100434.70;107591;1250;74066;-75
2022/09/30 01:51:30;;;;;;;5.70;3.80;;;;;;;11.27;100.00;100438.86;107523;1250;60972;-73
2022/09/30 01:54:24;;;;;;;4.10;3.20;;;;;;;11.19;100.00;100437.06;107380;1250;59209;-76
2022/09/30 01:57:01;;;;;;;6.50;3.40;;;;;;;11.12;100.00;100441.56;107401;1248;73002;-76
2022/09/30 02:00:08;;;;;;;5.50;2.80;;;;;;;11.12;100.00;100435.15;107328;1248;72686;-76
2022/09/30 02:02:58;;;;;;;6.40;3.40;;;;;;;11.09;100.00;100433.98;107487;1250;69524;-79
2022/09/30 02:05:46;;;;;;;7.80;3.70;;;;;;;11.04;100.00;100438.24;107393;1249;72596;-79
2022/09/30 02:08:25;;;;;;;6.30;3.60;;;;;;;10.97;100.00;100439.98;107309;1249;63764;-78
2022/09/30 02:11:25;;;;;;;8.00;3.80;;;;;;;10.90;100.00;100443.53;107302;1250;60072;-76
2022/09/30 02:14:09;;;;;;;6.70;3.60;;;;;;;10.88;100.00;100441.95;107343;1250;70916;-77
2022/09/30 02:16:45;;;;;;;5.10;3.20;;;;;;;10.92;100.00;100444.43;107312;1249;71273;-75
2022/09/30 02:19:17;;;;;;;6.40;3.30;;;;;;;10.92;100.00;100453.79;107275;1250;68313;-78
2022/09/30 02:22:01;;;;;;;6.40;3.10;;;;;;;10.95;100.00;100461.48;107415;1250;74921;-78
2022/09/30 02:24:37;;;;;;;6.90;3.40;;;;;;;10.98;100.00;100466.05;107513;1250;62545;-78
2022/09/30 02:27:13;;;;;;;5.90;3.30;;;;;;;10.97;100.00;100468.91;107378;1250;59325;-77
2022/09/30 02:29:49;;;;;;;4.80;3.10;;;;;;;10.94;100.00;100467.95;107471;1250;71802;-82
2022/09/30 02:32:29;;;;;;;4.80;3.50;;;;;;;10.87;100.00;100460.96;107232;1250;70691;-76
2022/09/30 02:35:12;;;;;;;6.30;3.60;;;;;;;10.85;100.00;100459.02;107290;1250;68692;-74
2022/09/30 02:37:49;;;;;;;8.80;4.00;;;;;;;10.81;100.00;100455.86;107274;1250;71920;-76
2022/09/30 02:40:47;;;;;;;6.90;3.50;;;;;;;10.81;100.00;100455.86;107129;1250;60666;-77
2022/09/30 02:43:19;;;;;;;4.40;3.30;;;;;;;10.81;100.00;100464.90;107085;1250;60550;-75
2022/09/30 02:46:04;;;;;;;8.10;3.40;;;;;;;10.81;100.00;100467.17;107318;1249;74880;-76
2022/09/30 02:48:59;;;;;;;4.60;3.20;;;;;;;10.83;100.00;100469.11;107309;1250;70091;-73
2022/09/30 02:52:06;;;;;;;5.40;3.20;;;;;;;10.86;100.00;100473.23;107438;1249;69920;-79
2022/09/30 02:54:59;;;;;;;6.50;3.30;;;;;;;11.03;100.00;100485.33;107526;1249;73058;-73
2022/09/30 02:58:12;;;;;;;6.10;3.30;;;;;;;11.18;100.00;100487.01;107295;1250;62871;-76
2022/09/30 03:00:41;;;;;;;12.80;3.60;;;;;;;11.08;100.00;100482.02;106650;1256;59674;-78
2022/09/30 03:03:28;;;;;;;6.20;3.90;;;;;;;11.01;100.00;100476.95;106663;1257;71838;-79
2022/09/30 03:05:57;;;;;;;6.00;3.30;;;;;;;11.10;100.00;100469.64;107119;1250;72302;-73
2022/09/30 03:08:25;;;;;;;6.50;3.70;;;;;;;11.21;100.00;100473.11;107126;1250;71141;-72
2022/09/30 03:10:55;;;;;;;6.80;3.80;;;;;;;11.29;100.00;100482.10;107343;1250;71865;-73
2022/09/30 03:13:42;;;;;;;5.80;3.30;;;;;;;11.31;100.00;100489.23;107646;1250;62240;-72
2022/09/30 03:16:13;;;;;;;4.70;3.30;;;;;;;11.36;100.00;100492.55;107594;1249;61342;-74
2022/09/30 03:19:03;;;;;;;5.50;3.80;;;;;;;11.28;100.00;100491.73;107442;1250;72226;-72
2022/09/30 03:22:05;;;;;;;5.30;3.90;;;;;;;11.22;100.00;100490.65;107173;1250;70442;-72
2022/09/30 03:25:14;;;;;;;5.60;3.60;;;;;;;11.13;100.00;100486.67;107320;1250;69278;-75
2022/09/30 03:28:10;;;;;;;5.50;3.40;;;;;;;11.03;100.00;100487.95;107227;1250;72980;-76
2022/09/30 03:31:13;;;;;;;7.80;4.00;;;;;;;10.96;100.00;100489.23;107306;1250;62593;-77
2022/09/30 03:34:00;;;;;;;4.80;3.60;;;;;;;10.90;100.00;100496.16;107329;1250;61807;-77
2022/09/30 03:37:10;;;;;;;5.50;3.30;;;;;;;10.97;100.00;100493.66;107385;1250;74098;-75
2022/09/30 03:40:44;;;;;;;8.50;3.20;;;;;;;11.01;100.00;100495.75;107204;1250;73203;-75
2022/09/30 03:43:49;;;;;;;6.70;3.00;;;;;;;10.87;100.00;100493.05;107178;1250;70835;-74
2022/09/30 03:46:30;;;;;;;4.80;2.90;;;;;;;10.72;100.00;100501.36;107209;1250;70648;-74
2022/09/30 03:49:06;;;;;;;5.30;3.20;;;;;;;10.59;100.00;100500.05;107295;1250;60740;-71
2022/09/30 03:51:38;;;;;;;3.50;2.40;;;;;;;10.51;100.00;100494.73;107279;1250;60449;-73
2022/09/30 03:54:10;;;;;;;7.60;3.30;;;;;;;10.43;100.00;100489.25;107261;1250;74058;-74
2022/09/30 03:56:42;;;;;;;5.90;3.30;;;;;;;10.38;100.00;100488.21;107287;1250;72193;-75
2022/09/30 03:59:20;;;;;;;4.20;3.00;;;;;;;10.36;100.00;100492.21;107910;1251;71213;-72
2022/09/30 04:01:50;;;;;;;10.30;4.70;;;;;;;10.38;100.00;100495.77;107498;1251;72659;-70
2022/09/30 04:04:19;;;;;;;6.10;2.70;;;;;;;10.45;100.00;100499.75;107330;1250;61874;-74
2022/09/30 04:06:48;;;;;;;7.60;3.20;;;;;;;10.41;100.00;100506.13;107322;1250;61065;-75
2022/09/30 04:09:17;;;;;;;7.20;3.20;;;;;;;10.27;100.00;100513.72;107266;1251;72136;-82
2022/09/30 04:11:48;;;;;;;6.20;3.50;;;;;;;10.15;100.00;100518.65;107426;1250;72528;-81
2022/09/30 04:14:16;;;;;;;11.50;4.70;;;;;;;10.08;100.00;100527.83;107138;1249;72142;-77
2022/09/30 04:16:45;;;;;;;10.10;3.80;;;;;;;10.26;100.00;100528.26;107272;1252;71925;-74
2022/09/30 04:19:20;;;;;;;8.80;3.70;;;;;;;10.45;100.00;100532.65;107246;1250;61797;-80
2022/09/30 04:21:52;;;;;;;9.10;3.60;;;;;;;10.52;100.00;100527.02;107022;1251;60674;-77
2022/09/30 04:24:22;;;;;;;6.90;3.50;;;;;;;10.71;100.00;100528.92;107353;1250;73476;-75
2022/09/30 04:26:51;;;;;;;8.10;3.70;;;;;;;10.81;100.00;100530.80;107409;1250;72773;-75
2022/09/30 04:29:19;;;;;;;10.20;3.50;;;;;;;10.91;100.00;100532.13;107286;1248;70495;-77
2022/09/30 04:31:48;;;;;;;7.80;3.80;;;;;;;10.95;100.00;100537.40;106836;1250;363513;-83
2022/09/30 04:34:17;;;;;;;9.10;4.50;;;;;;;11.08;100.00;100535.48;107508;1249;61382;-75
2022/09/30 04:36:46;;;;;;;11.10;4.40;;;;;;;11.22;100.00;100538.23;107593;1250;58901;-80
2022/09/30 04:39:15;;;;;;;15.00;5.10;;;;;;;11.30;100.00;100537.61;107592;1250;71699;-76
2022/09/30 04:41:44;;;;;;;7.90;5.70;;;;;;;11.29;100.00;100540.98;107595;1250;70360;-75
2022/09/30 04:44:13;;;;;;;8.50;5.10;;;;;;;11.38;100.00;100547.27;107540;1249;71039;-78
2022/09/30 04:46:42;;;;;;;15.50;6.00;;;;;;;11.49;100.00;100555.50;107527;1249;73500;-75
2022/09/30 04:49:10;;;;;;;13.60;5.30;;;;;;;11.58;100.00;100562.98;107357;1250;63011;-76
2022/09/30 04:51:42;;;;;;;16.10;5.30;;;;;;;11.66;100.00;100568.40;107319;1250;60146;-74
2022/09/30 04:54:13;;;;;;;9.80;5.80;;;;;;;11.74;100.00;100571.66;107545;1250;74062;-79
2022/09/30 04:56:42;;;;;;;13.20;6.80;;;;;;;11.80;100.00;100575.55;107375;1250;69771;-74
2022/09/30 04:59:11;;;;;;;20.10;12.30;;;;;;;11.83;100.00;100576.93;107577;1250;69802;-75
2022/09/30 05:01:41;;;;;;;11.00;6.70;;;;;;;11.84;100.00;100583.61;107604;1247;74160;-75
2022/09/30 05:04:15;;;;;;;9.60;5.10;;;;;;;11.93;100.00;100589.55;107685;1246;62165;-76
2022/09/30 05:06:43;;;;;;;9.80;5.90;;;;;;;12.05;100.00;100591.60;107789;1248;61713;-77
2022/09/30 05:09:12;;;;;;;12.60;5.10;;;;;;;12.19;100.00;100591.48;107681;1248;71683;-79
2022/09/30 05:11:41;;;;;;;11.20;7.30;;;;;;;12.34;100.00;100593.59;107568;1248;69609;-75
2022/09/30 05:14:10;;;;;;;12.90;9.50;;;;;;;12.46;100.00;100588.38;107603;1247;67935;-75
2022/09/30 05:16:38;;;;;;;13.30;8.20;;;;;;;12.58;99.77;100580.27;107552;1248;72058;-74
2022/09/30 05:19:07;;;;;;;12.90;8.00;;;;;;;12.72;99.01;100574.39;107403;1248;60484;-74
2022/09/30 05:21:36;;;;;;;11.20;6.60;;;;;;;12.94;97.85;100573.35;107643;1248;61280;-81
2022/09/30 05:24:05;;;;;;;24.30;9.30;;;;;;;13.16;97.36;100574.63;107628;1247;71646;-78
2022/09/30 05:26:34;;;;;;;16.40;8.50;;;;;;;13.40;96.72;100579.08;107429;1247;71726;-81
2022/09/30 05:29:02;;;;;;;13.70;7.80;;;;;;;13.59;96.45;100590.04;107537;1250;70836;-76
2022/09/30 05:31:31;;;;;;;22.40;12.00;;;;;;;13.73;96.40;100602.11;107365;1250;72032;-79
2022/09/30 05:34:00;;;;;;;28.50;14.00;;;;;;;13.87;95.54;100608.74;107547;1250;61363;-78
2022/09/30 05:36:29;;;;;;;18.10;7.40;;;;;;;13.99;95.00;100610.52;107427;1250;59965;-78
2022/09/30 05:38:58;;;;;;;25.60;9.10;;;;;;;14.02;94.99;100609.77;107550;1250;70701;-81
2022/09/30 05:41:27;;;;;;;17.30;8.10;;;;;;;14.05;94.92;100611.71;107417;1250;71266;-77
2022/09/30 05:43:59;;;;;;;219.20;28.50;;;;;;;14.11;94.74;100615.83;107523;1250;70854;-78
2022/09/30 05:46:28;;;;;;;162.00;23.60;;;;;;;14.22;94.27;100611.63;107488;1250;71670;-77
2022/09/30 05:48:57;;;;;;;1049.20;162.70;;;;;;;14.38;93.12;100611.21;107377;1250;60546;-83
2022/09/30 05:51:26;;;;;;;399.40;51.90;;;;;;;14.58;92.11;100616.80;107244;1250;59015;-79
2022/09/30 05:53:55;;;;;;;52.70;14.40;;;;;;;14.73;91.38;100625.31;107511;1250;74244;-78
2022/09/30 05:56:23;;;;;;;634.90;89.00;;;;;;;14.83;92.53;100629.95;107484;1250;70779;-80
2022/09/30 05:58:52;;;;;;;321.00;45.10;;;;;;;14.89;91.31;100637.35;107317;1250;67904;-80
2022/09/30 06:01:21;;;;;;;1835.70;308.40;;;;;;;14.96;91.31;100639.30;107349;1250;71197;-80
2022/09/30 06:03:50;;;;;;;1999.90;565.60;;;;;;;15.02;90.02;100637.52;107550;1250;61405;-75
2022/09/30 06:06:19;;;;;;;1999.90;440.10;;;;;;;15.13;89.11;100635.27;107529;1250;59701;-77
2022/09/30 06:08:48;;;;;;;1257.60;208.80;;;;;;;15.18;89.17;100636.63;107500;1249;71706;-79
2022/09/30 06:11:22;;;;;;;1265.40;230.40;;;;;;;15.17;88.84;100637.67;107331;1250;70524;-79
2022/09/30 06:13:51;;;;;;;1256.80;174.50;;;;;;;15.11;88.91;100638.80;107561;1250;69802;-83
2022/09/30 06:16:20;;;;;;;927.50;116.00;;;;;;;15.09;89.85;100640.94;107564;1249;72533;-76
2022/09/30 06:18:49;;;;;;;856.00;121.50;;;;;;;15.18;89.57;100637.44;107359;1250;61817;-82
2022/09/30 06:21:18;;;;;;;584.60;71.80;;;;;;;15.24;89.73;100637.90;107300;1250;61328;-78
2022/09/30 06:23:47;;;;;;;68.00;12.90;;;;;;;15.23;90.07;100644.40;107530;1250;73679;-77
2022/09/30 06:26:16;;;;;;;120.20;19.60;;;;;;;15.24;90.24;100644.09;107537;1248;70371;-76
2022/09/30 06:28:45;;;;;;;96.30;15.30;;;;;;;15.32;90.70;100644.20;107625;1250;69785;-77
2022/09/30 06:31:14;;;;;;;59.10;14.10;;;;;;;15.43;89.78;100644.92;107567;1250;72791;-79
2022/09/30 06:33:43;;;;;;;102.40;22.90;;;;;;;15.49;88.27;100643.48;107638;1250;60979;-81
2022/09/30 06:36:12;;;;;;;49.90;13.00;;;;;;;15.54;88.15;100642.80;107369;1250;60371;-75
2022/09/30 06:38:41;;;;;;;16.30;6.90;;;;;;;15.38;88.91;100641.86;107527;1250;74263;-79
2022/09/30 06:41:09;;;;;;;64.60;11.60;;;;;;;15.49;88.59;100646.14;107544;1250;70867;-77
2022/09/30 06:43:38;;;;;;;19.00;6.40;;;;;;;15.62;87.30;100651.77;107505;1249;67747;-78
2022/09/30 06:46:26;;;;;;;71.00;10.10;;;;;;;15.73;86.96;100661.59;107483;1250;72804;-81
2022/09/30 06:48:58;;;;;;;27.40;7.80;;;;;;;15.91;86.97;100670.75;107510;1250;63337;-78
2022/09/30 06:51:40;;;;;;;20.50;7.90;;;;;;;16.15;86.48;100683.41;107449;1249;61363;-79
2022/09/30 06:54:10;;;;;;;12.80;6.30;;;;;;;16.22;86.01;100686.09;107318;1249;72904;-79
2022/09/30 06:56:39;;;;;;;1731.10;420.70;;;;;;;16.27;85.36;100680.67;107276;1249;71994;-78
2022/09/30 06:59:07;;;;;;;430.90;57.00;;;;;;;16.38;83.14;100684.66;107459;1250;70921;-78
2022/09/30 07:01:36;;;;;;;308.80;42.40;;;;;;;16.55;83.08;100688.13;107438;1250;63788;-81
2022/09/30 07:04:08;;;;;;;710.10;92.40;;;;;;;16.71;81.62;100684.30;107517;1249;59722;-79
2022/09/30 07:06:38;;;;;;;925.80;129.80;;;;;;;16.86;81.27;100676.33;107387;1250;59134;-77
2022/09/30 07:09:09;;;;;;;199.60;30.50;;;;;;;16.98;80.44;100677.75;107476;1250;63852;-80
2022/09/30 07:11:39;;;;;;;946.10;129.80;;;;;;;17.03;79.06;100678.98;107338;1250;60952;-72
2022/09/30 07:14:09;;;;;;;281.30;31.20;;;;;;;17.12;79.37;100680.02;107474;1250;69443;-78
2022/09/30 07:16:37;;;;;;;115.20;18.10;;;;;;;17.26;79.27;100684.48;107353;1249;73739;-79
2022/09/30 07:19:08;;;;;;;268.90;33.30;;;;;;;17.36;79.15;100681.63;107277;1249;58960;-77
2022/09/30 07:21:37;;;;;;;64.90;12.50;;;;;;;17.47;78.72;100679.09;107081;1250;59131;-77
2022/09/30 07:24:08;;;;;;;637.20;80.60;;;;;;;17.52;77.14;100672.33;107221;1249;62957;-77
2022/09/30 07:26:38;;;;;;;41.60;9.40;;;;;;;17.62;76.06;100675.33;107339;1250;71382;-78
2022/09/30 07:29:07;;;;;;;1314.20;190.10;;;;;;;17.69;77.07;100678.94;107376;1250;69138;-76
2022/09/30 07:31:35;;;;;;;43.70;12.80;;;;;;;17.81;77.13;100679.95;107316;1250;73576;-77
2022/09/30 07:34:07;;;;;;;135.50;20.00;;;;;;;17.87;77.13;100681.52;107163;1250;58635;-78
2022/09/30 07:36:40;;;;;;;98.50;17.60;;;;;;;17.87;75.31;100684.75;107363;1250;60500;-79
2022/09/30 07:39:10;;;;;;;463.20;59.20;;;;;;;18.02;74.68;100687.46;107476;1250;65417;-78
2022/09/30 07:41:39;;;;;;;16.10;6.00;;;;;;;18.18;74.61;100683.58;107433;1249;73632;-76
2022/09/30 07:44:13;;;;;;;822.00;106.80;;;;;;;18.32;72.83;100689.69;107384;1250;71813;-79
2022/09/30 07:46:43;;;;;;;240.60;31.10;;;;;;;18.50;69.19;100697.50;107482;1250;74413;-79
2022/09/30 07:49:23;;;;;;;242.20;32.50;;;;;;;18.57;69.29;100701.20;107507;1250;58945;-77
2022/09/30 07:51:57;;;;;;;11.80;4.00;;;;;;;18.75;71.10;100706.34;107514;1250;58325;-79
2022/09/30 07:54:29;;;;;;;345.10;44.10;;;;;;;18.90;70.48;100707.25;107546;1250;73835;-79
2022/09/30 07:57:01;;;;;;;22.90;5.40;;;;;;;18.93;68.29;100703.50;107424;1248;60715;-78
2022/09/30 07:59:40;;;;;;;261.80;36.40;;;;;;;19.00;66.17;100701.88;107328;1250;70615;-79
2022/09/30 08:02:15;;;;;;;273.70;36.10;;;;;;;19.16;66.11;100708.13;107175;1251;73270;-75
2022/09/30 08:04:45;;;;;;;139.20;18.30;;;;;;;19.27;66.26;100711.50;107346;1250;61541;-77
2022/09/30 08:07:16;;;;;;;190.10;22.40;;;;;;;19.40;65.17;100716.65;107243;1250;60506;-77
2022/09/30 08:09:45;;;;;;;147.20;19.10;;;;;;;19.47;63.68;100717.73;107065;1250;63468;-76
2022/09/30 08:12:15;;;;;;;225.80;32.40;;;;;;;19.57;63.32;100713.48;107358;1250;71925;-77
2022/09/30 08:14:44;;;;;;;48.30;9.10;;;;;;;19.63;62.25;100714.73;107359;1249;69683;-73
2022/09/30 08:17:12;;;;;;;490.30;62.60;;;;;;;19.74;63.81;100717.63;107339;1249;74211;-77
2022/09/30 08:19:43;;;;;;;10.80;4.80;;;;;;;19.88;64.12;100721.83;107447;1250;57458;-75
2022/09/30 08:22:13;;;;;;;452.50;64.60;;;;;;;19.97;63.88;100726.14;107521;1250;58701;-77
2022/09/30 08:24:42;;;;;;;1108.00;160.20;;;;;;;19.88;62.43;100727.21;107575;1250;73562;-77
2022/09/30 08:27:11;;;;;;;387.90;51.90;;;;;;;19.96;62.95;100724.16;107518;1250;62562;-72
2022/09/30 08:29:40;;;;;;;80.00;13.50;;;;;;;20.14;63.56;100725.02;107612;1250;59436;-76
2022/09/30 08:32:30;;;;;;;397.70;44.90;;;;;;;20.30;62.26;100728.45;107656;1248;74015;-77
2022/09/30 08:34:58;;;;;;;46.10;7.90;;;;;;;20.51;63.05;100725.80;107354;1250;62649;-77
2022/09/30 08:37:27;;;;;;;267.20;41.80;;;;;;;20.67;62.38;100725.92;107495;1250;58977;-77
2022/09/30 08:39:56;;;;;;;1604.80;272.70;;;;;;;20.72;61.15;100720.52;107195;1250;72053;-77
2022/09/30 08:43:09;;;;;;;835.10;125.90;;;;;;;20.76;60.87;100729.21;107415;1250;73193;-75
2022/09/30 08:45:57;;;;;;;1252.00;179.50;;;;;;;20.83;61.56;100733.92;107398;1249;61602;-73
2022/09/30 08:48:55;;;;;;;1999.90;480.70;;;;;;;20.84;61.35;100731.86;107549;1249;73865;-76
2022/09/30 08:51:45;;;;;;;650.70;82.30;;;;;;;20.90;60.57;100739.08;107266;1250;61263;-74
2022/09/30 08:54:21;;;;;;;158.90;20.80;;;;;;;21.00;60.39;100738.34;107411;1250;59073;-76
2022/09/30 08:56:52;;;;;;;1063.60;147.10;;;;;;;21.18;60.66;100738.96;107447;1250;62742;-80
2022/09/30 08:59:31;;;;;;;189.50;23.10;;;;;;;21.30;58.97;100737.70;107533;1250;61650;-76
2022/09/30 09:02:17;;;;;;;69.50;9.50;;;;;;;21.34;57.96;100739.91;107514;1250;59311;-72
2022/09/30 09:04:53;;;;;;;116.60;12.40;;;;;;;21.54;59.64;100735.89;107743;1250;73089;-78
2022/09/30 09:07:53;;;;;;;150.80;17.50;;;;;;;21.66;58.35;100736.04;108344;1250;62719;-76
2022/09/30 09:10:43;;;;;;;311.00;34.70;;;;;;;21.84;57.54;100733.73;108553;1248;61040;-76
2022/09/30 09:13:30;;;;;;;57.90;7.90;;;;;;;21.89;56.13;100728.23;107934;1250;73193;-76
2022/09/30 09:16:46;;;;;;;12.50;2.90;;;;;;;21.91;55.20;100727.55;107547;1249;72582;-78
2022/09/30 09:19:23;;;;;;;223.80;22.10;;;;;;;21.95;54.29;100728.46;107199;1250;60396;-79
2022/09/30 09:22:00;;;;;;;6.60;3.00;;;;;;;22.18;54.82;100726.48;107379;1250;73954;-77
2022/09/30 09:24:45;;;;;;;8.70;3.20;;;;;;;22.42;55.48;100720.49;107628;1249;58833;-76
2022/09/30 09:27:51;;;;;;;119.40;12.20;;;;;;;22.55;54.15;100715.04;107552;1249;61353;-76
2022/09/30 09:30:23;;;;;;;7.40;2.30;;;;;;;22.58;53.87;100717.15;107572;1249;63802;-77
2022/09/30 09:33:10;;;;;;;50.10;6.00;;;;;;;22.58;53.36;100718.71;107401;1250;60839;-75
2022/09/30 09:35:47;;;;;;;7.20;1.90;;;;;;;22.73;53.22;100714.89;107550;1250;69145;-79
2022/09/30 09:38:46;;;;;;;13.60;3.00;;;;;;;22.65;52.65;100708.09;107567;1250;74360;-74
2022/09/30 09:41:52;;;;;;;6.60;2.10;;;;;;;22.70;52.21;100705.30;107388;1250;62160;-74
2022/09/30 09:44:52;;;;;;;33.00;4.20;;;;;;;23.00;52.71;100707.50;107397;1250;60935;-78
2022/09/30 09:47:21;;;;;;;5.10;2.30;;;;;;;23.20;50.49;100704.27;107543;1249;73326;-77
2022/09/30 09:49:56;;;;;;;374.30;30.20;;;;;;;23.07;51.57;100708.02;107278;1250;72868;-76
2022/09/30 09:53:10;;;;;;;7.90;2.60;;;;;;;23.12;51.87;100709.16;107114;1253;59607;-75
2022/09/30 09:55:39;;;;;;;6.80;2.50;;;;;;;23.34;51.52;100708.66;107495;1249;62623;-75
2022/09/30 09:58:16;;;;;;;11.80;3.40;;;;;;;23.42;50.74;100710.06;107518;1250;60614;-76
2022/09/30 10:03:19;;;;;;;12.20;3.10;;;;;;;23.39;50.48;100712.92;107569;1247;74948;-78
2022/09/30 10:06:06;;;;;;;75.50;8.40;;;;;;;23.47;50.46;100707.04;107516;1248;64734;-76
2022/09/30 10:08:52;;;;;;;84.00;8.70;;;;;;;23.33;49.73;100699.89;107611;1247;72041;-73
2022/09/30 10:11:26;;;;;;;15.90;3.20;;;;;;;23.18;50.82;100698.13;107623;1247;63612;-76
2022/09/30 10:13:59;;;;;;;12.90;3.00;;;;;;;23.10;51.01;100694.52;107486;1250;61639;-76
2022/09/30 10:16:36;;;;;;;47.90;5.20;;;;;;;23.12;50.97;100694.94;107477;1251;58974;-76
2022/09/30 10:19:26;;;;;;;4.90;2.30;;;;;;;23.14;51.89;100699.98;107604;1248;63332;-76
2022/09/30 10:22:30;;;;;;;8.10;2.50;;;;;;;23.48;52.43;100698.02;107588;1248;72415;-74
2022/09/30 10:25:13;;;;;;;7.00;1.70;;;;;;;23.91;49.81;100699.63;107537;1249;60394;-78
2022/09/30 10:28:18;;;;;;;7.50;2.20;;;;;;;23.90;47.88;100691.95;107325;1251;63262;-76
2022/09/30 10:31:13;;;;;;;4.30;1.40;;;;;;;24.36;48.03;100690.70;107580;1247;61186;-79
2022/09/30 10:33:47;;;;;;;13.00;2.50;;;;;;;24.83;46.83;100692.92;107282;1248;61178;-79
2022/09/30 10:36:18;;;;;;;6.00;1.60;;;;;;;25.19;46.51;100690.55;107656;1248;73406;-81
2022/09/30 10:39:23;;;;;;;2.70;1.40;;;;;;;25.55;45.87;100688.77;107571;1247;61217;-81
2022/09/30 10:42:07;;;;;;;5.60;1.60;;;;;;;26.04;44.90;100686.36;107428;1247;60277;-78
2022/09/30 10:44:47;;;;;;;5.30;1.80;;;;;;;26.18;42.75;100684.50;107474;1248;73963;-78
2022/09/30 10:47:23;;;;;;;24.00;2.70;;;;;;;26.38;41.66;100688.05;107691;1247;60844;-78
2022/09/30 10:50:07;;;;;;;4.40;1.80;;;;;;;26.36;41.45;100690.78;107568;1250;58912;-79
2022/09/30 10:52:57;;;;;;;5.40;1.80;;;;;;;26.83;40.93;100682.30;107594;1248;73565;-78
2022/09/30 10:55:40;;;;;;;5.50;1.90;;;;;;;27.17;42.18;100679.16;107599;1248;72656;-78
2022/09/30 10:58:49;;;;;;;7.00;1.90;;;;;;;26.88;40.11;100670.29;107603;1247;70061;-76
2022/09/30 11:01:26;;;;;;;11.30;1.60;;;;;;;26.42;40.16;100670.95;107542;1248;73505;-79
2022/09/30 11:04:10;;;;;;;18.40;2.90;;;;;;;26.31;39.77;100673.64;107220;1249;61662;-76
2022/09/30 11:06:39;;;;;;;5.10;1.80;;;;;;;26.77;39.83;100676.91;107405;1250;60795;-76
2022/09/30 11:09:19;;;;;;;7.30;2.40;;;;;;;26.92;39.18;100674.42;107114;1251;62843;-74
2022/09/30 11:11:59;;;;;;;13.10;3.50;;;;;;;27.16;38.17;100664.01;107461;1248;71371;-74
2022/09/30 11:14:48;;;;;;;5.90;1.50;;;;;;;26.78;38.14;100663.90;107486;1249;59121;-76
2022/09/30 11:17:43;;;;;;;8.20;3.70;;;;;;;26.96;37.10;100664.08;107485;1248;73080;-78
2022/09/30 11:20:31;;;;;;;5.90;2.60;;;;;;;26.68;35.57;100665.55;107470;1248;58932;-76
2022/09/30 11:23:21;;;;;;;5.50;2.10;;;;;;;27.14;35.30;100665.55;107347;1248;60518;-75
2022/09/30 11:26:13;;;;;;;3.60;1.30;;;;;;;27.98;34.13;100667.23;107551;1248;74094;-76
2022/09/30 11:28:51;;;;;;;3.10;1.40;;;;;;;28.73;31.89;100667.87;107411;1248;71882;-80
2022/09/30 11:31:51;;;;;;;3.40;1.30;;;;;;;29.07;31.66;100670.97;107552;1248;70316;-80
2022/09/30 11:35:00;;;;;;;43.10;4.10;;;;;;;29.11;31.67;100672.67;107574;1250;64216;-79
2022/09/30 11:37:57;;;;;;;10.60;1.90;;;;;;;28.79;32.81;100671.19;107598;1247;60097;-78
2022/09/30 11:40:50;;;;;;;16.60;2.80;;;;;;;29.11;32.13;100676.69;107577;1248;61572;-77
2022/09/30 11:43:49;;;;;;;96.30;8.30;;;;;;;28.76;32.61;100673.65;107500;1248;72901;-77
2022/09/30 11:46:42;;;;;;;19.70;2.80;;;;;;;29.12;31.75;100669.92;107254;1247;71822;-81
2022/09/30 11:49:44;;;;;;;3.00;1.40;;;;;;;30.05;29.77;100674.42;107601;1247;70259;-75
2022/09/30 11:52:54;;;;;;;327.80;27.10;;;;;;;30.04;29.83;100670.48;107461;1248;74172;-78
2022/09/30 11:56:04;;;;;;;3.90;1.60;;;;;;;30.15;29.91;100669.30;107755;1247;58869;-76
2022/09/30 11:58:50;;;;;;;831.90;79.20;;;;;;;29.94;30.79;100672.80;107590;1250;61294;-76
2022/09/30 12:01:48;;;;;;;308.00;24.80;;;;;;;28.86;31.79;100666.41;107648;1247;62775;-78